createdAt,value
2022-08-19T00:00:15.087Z,9.48
2022-08-19T00:05:17.111Z,8.95
2022-08-19T00:10:20.634Z,9.48
2022-08-19T00:15:23.551Z,9.32
2022-08-19T00:20:25.219Z,9.80
2022-08-19T00:25:30.350Z,8.57
2022-08-19T00:30:32.446Z,9.90
2022-08-19T00:35:34.617Z,9.52
2022-08-19T00:40:36.280Z,10.48
2022-08-19T00:45:37.983Z,10.57
2022-08-19T00:50:52.062Z,10.07
2022-08-19T00:55:57.686Z,9.80
2022-08-19T01:00:59.563Z,9.80
2022-08-19T01:06:01.404Z,10.65
2022-08-19T01:11:03.640Z,10.20
2022-08-19T01:16:13.502Z,10.85
2022-08-19T01:21:30.867Z,10.13
2022-08-19T01:26:32.476Z,8.93
2022-08-19T01:31:34.666Z,9.85
2022-08-19T01:36:42.924Z,10.40
2022-08-19T01:41:44.728Z,8.80
2022-08-19T01:46:48.857Z,10.20
2022-08-19T01:51:50.725Z,9.50
2022-08-19T01:56:56.097Z,9.32
2022-08-19T02:01:57.760Z,10.10
2022-08-19T02:06:59.336Z,9.75
2022-08-19T02:12:01.715Z,8.50
2022-08-19T02:17:03.921Z,10.23
2022-08-19T02:22:05.893Z,9.82
2022-08-19T02:27:07.667Z,10.07
2022-08-19T02:32:09.275Z,9.65
2022-08-19T02:37:30.919Z,9.75
2022-08-19T02:42:37.014Z,9.90
2022-08-19T02:47:38.748Z,10.63
2022-08-19T02:52:40.351Z,9.90
2022-08-19T02:57:43.028Z,9.93
2022-08-19T03:02:44.710Z,10.35
2022-08-19T03:07:47.566Z,10.20
2022-08-19T03:12:49.254Z,9.85
2022-08-19T03:17:51.022Z,10.10
2022-08-19T03:22:52.686Z,10.50
2022-08-19T03:27:54.373Z,10.70
2022-08-19T03:32:57.048Z,10.23
2022-08-19T03:38:01.842Z,11.25
2022-08-19T03:43:03.893Z,10.70
2022-08-19T03:48:05.636Z,11.00
2022-08-19T03:53:08.377Z,12.02
2022-08-19T03:58:12.059Z,11.48
2022-08-19T04:03:13.671Z,11.90
2022-08-19T04:08:19.134Z,11.45
2022-08-19T04:13:20.774Z,11.68
2022-08-19T04:18:22.343Z,12.13
2022-08-19T04:23:24.766Z,11.15
2022-08-19T04:28:27.100Z,12.23
2022-08-19T04:33:29.643Z,12.07
2022-08-19T04:38:31.302Z,11.85
2022-08-19T04:43:33.808Z,12.70
2022-08-19T04:48:36.568Z,12.25
2022-08-19T04:53:47.048Z,12.93
2022-08-19T04:58:49.489Z,13.25
2022-08-19T05:03:51.520Z,12.50
2022-08-19T05:08:53.181Z,12.40
2022-08-19T05:13:55.752Z,12.40
2022-08-19T05:19:16.031Z,13.07
2022-08-19T05:24:18.261Z,13.75
2022-08-19T05:29:22.398Z,12.93
2022-08-19T05:34:27.009Z,13.45
2022-08-19T05:39:31.712Z,13.35
2022-08-19T05:44:37.375Z,13.07
2022-08-19T05:49:39.391Z,14.13
2022-08-19T05:54:42.584Z,14.63
2022-08-19T05:59:46.796Z,14.25
2022-08-19T06:04:48.389Z,13.57
2022-08-19T06:09:59.811Z,13.35
2022-08-19T06:15:06.913Z,14.15
2022-08-19T06:20:12.981Z,13.82
2022-08-19T06:25:15.715Z,15.10
2022-08-19T06:30:17.580Z,13.20
2022-08-19T06:35:19.464Z,12.88
2022-08-19T06:40:21.209Z,13.90
2022-08-19T06:45:34.405Z,13.27
2022-08-19T06:50:39.396Z,13.63
2022-08-19T06:55:42.147Z,13.40
2022-08-19T07:00:43.834Z,12.07
2022-08-19T07:05:46.258Z,12.25
2022-08-19T07:10:48.947Z,11.82
2022-08-19T07:15:51.293Z,12.02
2022-08-19T07:21:04.319Z,11.98
2022-08-19T07:26:20.298Z,11.48
2022-08-19T07:31:31.111Z,11.07
2022-08-19T07:36:33.332Z,11.35
2022-08-19T07:41:37.992Z,10.90
2022-08-19T07:46:42.178Z,10.98
2022-08-19T07:51:49.350Z,10.73
2022-08-19T07:56:52.508Z,10.63
2022-08-19T08:01:54.914Z,11.00
2022-08-19T08:07:15.514Z,10.07
2022-08-19T08:12:34.101Z,10.80
2022-08-19T08:17:49.678Z,10.70
2022-08-19T08:23:12.099Z,9.60
2022-08-19T08:28:17.656Z,9.93
2022-08-19T08:33:32.769Z,9.25
2022-08-19T08:38:41.706Z,8.70
2022-08-19T08:43:47.282Z,9.38
2022-08-19T08:49:15.184Z,9.45
2022-08-19T08:54:21.624Z,8.85
2022-08-19T08:59:33.392Z,9.63
2022-08-19T09:04:36.871Z,9.20
2022-08-19T09:09:42.904Z,9.13
2022-08-19T09:15:05.443Z,8.73
2022-08-19T09:20:11.273Z,8.43
2022-08-19T09:25:16.400Z,9.77
2022-08-19T09:30:24.886Z,8.40
2022-08-19T09:35:29.881Z,8.93
2022-08-19T09:40:35.465Z,8.60
2022-08-19T09:45:40.417Z,8.55
2022-08-19T09:50:51.874Z,8.10
2022-08-19T09:55:56.290Z,8.45
2022-08-19T10:00:59.655Z,7.90
2022-08-19T10:06:04.417Z,8.70
2022-08-19T10:11:27.259Z,9.13
2022-08-19T10:16:30.160Z,8.55
2022-08-19T10:21:33.974Z,7.72
2022-08-19T10:26:38.147Z,8.23
2022-08-19T10:31:59.788Z,8.57
2022-08-19T10:37:02.146Z,8.15
2022-08-19T10:42:08.037Z,7.63
2022-08-19T10:47:21.875Z,8.30
2022-08-19T10:52:38.981Z,7.05
2022-08-19T10:58:01.278Z,7.85
2022-08-19T11:03:03.060Z,6.95
2022-08-19T11:08:22.092Z,6.53
2022-08-19T11:13:25.664Z,7.45
2022-08-19T11:18:27.561Z,6.60
2022-08-19T11:23:29.187Z,5.75
2022-08-19T11:28:30.984Z,6.45
2022-08-19T11:33:33.765Z,5.78
2022-08-19T11:38:36.692Z,5.00
2022-08-19T11:43:38.780Z,5.18
2022-08-19T11:48:41.136Z,5.00
2022-08-19T11:53:42.797Z,4.22
2022-08-19T11:58:44.754Z,4.50
2022-08-19T12:03:48.465Z,4.05
2022-08-19T12:08:50.650Z,3.85
2022-08-19T12:13:53.169Z,3.53
2022-08-19T12:18:56.730Z,4.05
2022-08-19T12:24:00.036Z,4.35
2022-08-19T12:29:01.705Z,3.90
2022-08-19T12:34:03.500Z,4.80
2022-08-19T12:39:07.566Z,4.55
2022-08-19T12:44:13.419Z,4.13
2022-08-19T12:49:52.172Z,4.65
2022-08-19T12:54:38.503Z,4.53
2022-08-19T12:59:40.162Z,4.70
2022-08-19T13:04:42.142Z,3.80
2022-08-19T13:09:43.815Z,4.30
2022-08-19T13:14:51.399Z,4.10
2022-08-19T13:19:53.123Z,4.43
2022-08-19T13:24:54.881Z,4.53
2022-08-19T13:30:15.044Z,4.25
2022-08-19T13:35:18.067Z,4.25
2022-08-19T13:40:27.207Z,4.10
2022-08-19T13:45:30.865Z,3.90
2022-08-19T13:50:32.535Z,4.10
2022-08-19T13:55:34.704Z,4.13
2022-08-19T14:00:40.163Z,3.92
2022-08-19T14:05:41.815Z,3.55
2022-08-19T14:10:45.747Z,4.13
2022-08-19T14:15:48.448Z,4.45
2022-08-19T14:20:50.133Z,3.83
2022-08-19T14:25:51.804Z,3.72
2022-08-19T14:30:56.547Z,3.95
2022-08-19T14:35:59.602Z,4.20
2022-08-19T14:41:09.089Z,4.78
2022-08-19T14:46:11.541Z,4.57
2022-08-19T14:51:13.918Z,4.85
2022-08-19T14:56:19.259Z,5.53
2022-08-19T15:01:23.515Z,5.10
2022-08-19T15:06:26.302Z,5.57
2022-08-19T15:11:28.859Z,5.35
2022-08-19T15:16:30.978Z,6.25
2022-08-19T15:21:33.375Z,8.98
2022-08-19T15:26:34.990Z,9.43
2022-08-19T15:31:38.237Z,11.45
2022-08-19T15:36:40.524Z,11.85
2022-08-19T15:41:42.911Z,11.05
2022-08-19T15:46:48.750Z,11.20
2022-08-19T15:51:53.005Z,11.57
2022-08-19T15:57:13.307Z,11.50
2022-08-19T16:02:37.213Z,13.13
2022-08-19T16:07:39.212Z,15.15
2022-08-19T16:12:41.641Z,14.20
2022-08-19T16:17:43.551Z,15.07
2022-08-19T16:22:59.218Z,16.73
2022-08-19T16:28:06.538Z,14.70
2022-08-19T16:33:10.169Z,14.95
2022-08-19T16:38:11.954Z,15.73
2022-08-19T16:43:13.527Z,14.95
2022-08-19T16:48:15.114Z,14.90
2022-08-19T16:53:19.548Z,14.90
2022-08-19T16:58:22.459Z,14.13
2022-08-19T17:03:35.805Z,13.95
2022-08-19T17:08:37.729Z,13.73
2022-08-19T17:13:39.288Z,13.77
2022-08-19T17:18:40.920Z,14.23
2022-08-19T17:23:44.107Z,14.35
2022-08-19T17:28:51.352Z,14.95
2022-08-19T17:33:55.032Z,14.30
2022-08-19T17:39:00.560Z,13.73
2022-08-19T17:44:03.387Z,14.15
2022-08-19T17:49:05.045Z,14.45
2022-08-19T17:54:15.938Z,13.02
2022-08-19T17:59:17.547Z,13.88
2022-08-19T18:04:20.065Z,13.35
2022-08-19T18:09:38.715Z,13.80
2022-08-19T18:14:44.284Z,13.48
2022-08-19T18:19:47.642Z,13.90
2022-08-19T18:24:49.627Z,12.82
2022-08-19T18:29:51.287Z,13.63
2022-08-19T18:34:53.725Z,13.90
2022-08-19T18:40:14.089Z,14.23
2022-08-19T18:45:34.368Z,13.98
2022-08-19T18:50:37.534Z,14.48
2022-08-19T18:55:39.359Z,13.88
2022-08-19T19:00:41.977Z,13.95
2022-08-19T19:05:44.369Z,14.32
2022-08-19T19:10:45.999Z,15.50
2022-08-19T19:15:48.807Z,14.85
2022-08-19T19:20:50.415Z,14.93
2022-08-19T19:25:52.434Z,15.18
2022-08-19T19:30:58.536Z,15.65
2022-08-19T19:36:00.202Z,15.75
2022-08-19T19:41:02.152Z,15.15
2022-08-19T19:46:03.890Z,15.27
2022-08-19T19:51:09.247Z,14.38
2022-08-19T19:56:13.031Z,10.40
2022-08-19T20:01:21.699Z,9.10
2022-08-19T20:06:29.079Z,8.55
2022-08-19T20:11:47.166Z,9.25
2022-08-19T20:16:49.885Z,8.98
2022-08-19T20:21:52.206Z,8.95
2022-08-19T20:26:54.144Z,8.38
2022-08-19T20:31:57.791Z,8.82
2022-08-19T20:37:01.117Z,7.50
2022-08-19T20:42:02.714Z,6.75
2022-08-19T20:47:04.448Z,7.00
2022-08-19T20:52:06.592Z,6.80
2022-08-19T20:57:08.801Z,6.70
2022-08-19T21:02:11.213Z,7.75
2022-08-19T21:07:12.793Z,7.60
2022-08-19T21:12:14.665Z,7.78
2022-08-19T21:17:16.252Z,7.50
2022-08-19T21:22:17.823Z,6.95
2022-08-19T21:27:19.408Z,7.15
2022-08-19T21:32:21.526Z,6.60
2022-08-19T21:37:25.614Z,6.50
2022-08-19T21:42:27.720Z,7.07
2022-08-19T21:47:29.287Z,5.90
2022-08-19T21:52:30.969Z,6.38
2022-08-19T21:57:32.715Z,5.85
2022-08-19T22:02:34.589Z,6.25
2022-08-19T22:07:37.010Z,6.38
2022-08-19T22:12:47.387Z,5.97
2022-08-19T22:17:54.482Z,6.38
2022-08-19T22:22:59.465Z,5.90
2022-08-19T22:28:03.566Z,6.35
2022-08-19T22:33:09.138Z,5.88
2022-08-19T22:38:11.988Z,6.72
2022-08-19T22:43:18.140Z,6.50
2022-08-19T22:48:22.813Z,6.10
2022-08-19T22:53:24.398Z,6.25
2022-08-19T22:58:28.158Z,6.25
2022-08-19T23:03:30.242Z,5.95
2022-08-19T23:08:31.826Z,6.80
2022-08-19T23:13:33.518Z,7.35
2022-08-19T23:18:35.357Z,7.32
2022-08-19T23:23:39.342Z,6.82
2022-08-19T23:28:59.289Z,6.85
2022-08-19T23:34:01.031Z,7.10
2022-08-19T23:39:03.006Z,7.35
2022-08-19T23:44:05.638Z,7.90
2022-08-19T23:49:16.128Z,7.18
2022-08-19T23:54:17.796Z,7.25
2022-08-19T23:59:19.662Z,7.40
